x

South Kodiak - 310nm Ssw Of Kodiak, Ak (46066) Wave Buoy

1:50am - Thu 27th Nov 2014 All times are UTC.

  • Sig Wave height 8.2ft
  • Swell Direction
  • Peak Period 16s
  • Average Period 9s
  • Wind
    4mph, 9mph gusts
  • Sea Temp 44°f
  • Air Temp 44°f
  • Sea Pressure 1024.3mb

More Historic Weather Station data

Upgrade to MSW Pro to gain access to the past 30 days of data for over 8000 Wavebouys and Weather Stations around the globe.

Join Pro

Comparision Forecast

View Surf forecast
   
Thu 11/27 1:50am 8ft 16s 9s 4 9 mph 1024.3mb 44f 44f
12:50am 9.5ft 16s 10s 2 9 mph 1024mb 44f 44f
Wed 11/26 11:50pm 10ft 17s 11s 7 11 mph 1023.8mb 44f 44f
10:50pm 9.5ft 17s 11s 7 9 mph 1023.9mb 44f 44f
9:50pm 7ft 19s 8s 9 11 mph 1024.2mb 44f 44f
8:50pm 6ft 19s 7s 9 13 mph 1024.3mb 44f 44f
7:50pm 5ft 13s 6s 11 13 mph 1024.1mb 44f 44f
6:50pm 4.5ft 13s 6s 13 18 mph 1023.9mb 44f 44f
5:50pm 4.5ft 5s 5s 9 11 mph 1023.6mb 44f 44f
4:50pm 4.5ft 5s 5s 13 18 mph 1023.3mb 44f 43f
3:50pm 4ft 5s 5s 16 20 mph 1022.7mb 44f 44f
2:50pm 4.5ft 5s 5s 13 18 mph 1022.6mb 44f 43f
1:50pm 4ft 10s 5s 11 16 mph 1022.6mb 44f 43f
12:50pm 4.5ft 4s 5s 13 16 mph 1023.2mb 44f 43f
11:50am 4.5ft 10s 5s 16 20 mph 1023.5mb 44f 42f
10:50am 5ft 11s 6s 16 20 mph 1023.3mb 44f 42f
9:50am 4.5ft 9s 5s 16 20 mph 1023.2mb 44f 42f
8:50am 4.5ft 9s 5s 18 20 mph 1023mb 44f 42f
7:50am 4.5ft 10s 6s 18 22 mph 1022.9mb 44f 43f
6:50am 4ft 10s 7s 16 18 mph 1023.2mb 44f 42f
5:50am 4ft 10s 7s 11 13 mph 1023.7mb 44f 42f
4:50am 4ft 9s 7s 7
mph
1024.4mb 44f 42f
3:50am 4.5ft 10s 7s 7 11 mph 1024.4mb 44f 42f
2:50am 4.5ft 9s 7s 9 11 mph 1023.8mb 44f 43f
1:50am 5ft 9s 7s 7 9 mph 1023.5mb 44f 42f
12:50am 5ft 11s 7s 4 7 mph 1023.2mb 44f 42f
Tue 11/25 11:50pm 6ft 10s 7s 4 7 mph 1023.3mb 44f 42f
10:50pm 6ft 11s 7s 7 9 mph 1023.1mb 44f 43f
9:50pm 6ft 10s 7s 4 7 mph 1023.7mb 44f 43f
8:50pm 6ft 9s 7s 4 11 mph 1024.1mb 44f 42f
7:50pm 6ft 11s 7s 9 11 mph 1023.9mb 44f 42f
6:50pm 6ft 8s 7s 4 7 mph 1023.6mb 44f 42f
5:50pm 6ft 10s 7s 4 11 mph 1023mb 44f 42f
4:50pm 5.5ft 10s 7s 7 13 mph 1022.5mb 44f 42f
3:50pm 5.5ft 8s 7s 7 9 mph 1021.9mb 44f 43f
2:50pm 6ft 9s 6s 7 11 mph 1021.2mb 44f 42f
1:50pm 6.5ft 9s 7s 13 16 mph 1020.6mb 44f 43f
12:50pm 7ft 9s 7s 11 13 mph 1020.4mb 44f 43f
11:50am 7ft 9s 7s 7 16 mph 1019.9mb 44f 42f
10:50am 7ft 11s 7s 7 13 mph 1019.4mb 44f 41f
9:50am 7ft 11s 7s 13 16 mph 1018.9mb 44f 42f
8:50am 7.5ft 10s 7s 9 11 mph 1018.3mb 44f 42f
7:50am 7ft 11s 7s 9 11 mph 1017.6mb 44f 43f
6:50am 8ft 11s 7s 9 11 mph 1017mb 44f 43f
5:50am 7ft 11s 7s 11 16 mph 1016.3mb 44f 43f
4:50am 7.5ft 8s 7s 11 13 mph 1015.2mb 44f 44f
2:50am 7ft 8s 6s 16 20 mph 1013.3mb 44f 44f
1:50am 7.5ft 9s 6s 18 20 mph 1012.2mb 44f 44f
12:50am 8ft 8s 6s 18 20 mph 1011.2mb 44f 44f
Mon 11/24 11:50pm 8ft 10s 6s 18 25 mph 1010.7mb 44f 44f
10:50pm 9ft 10s 7s 18 22 mph 1010.1mb 44f 44f
9:50pm 9ft 10s 7s 18 22 mph 1009.3mb 44f 44f
8:50pm 9.5ft 11s 7s 20 22 mph 1008.8mb 44f 44f
7:50pm 9ft 11s 7s 18 22 mph 1008mb 44f 44f
6:50pm 9ft 11s 7s 18 22 mph 1007mb 44f 44f
5:50pm 8.5ft 11s 7s 18 22 mph 1006.2mb 44f 43f
4:50pm 8ft 11s 7s 18 22 mph 1005.3mb 44f 44f
3:50pm 8ft 10s 7s 16 20 mph 1004.4mb 44f 43f
2:50pm 9ft 10s 7s 18 22 mph 1003.6mb 44f 44f
1:50pm 8.5ft 10s 7s 20 25 mph 1003mb 44f 42f
12:50pm 9ft 9s 7s 20 22 mph 1002.5mb 44f 43f
11:50am 10ft 10s 7s 20 22 mph 1001.9mb 44f 44f
10:50am 10ft 11s 7s 20 25 mph 1001.5mb 44f 43f
9:50am 10ft 11s 7s 20 27 mph 1000.8mb 44f 43f
8:50am 10ft 10s 7s 20 27 mph 1000.3mb 44f 43f
7:50am 10ft 10s 7s 22 27 mph 999.6mb 44f 44f
6:50am 9.5ft 10s 7s 20 25 mph 999mb 44f 44f
5:50am 9.5ft 9s 7s 20 25 mph 998.2mb 44f 44f
4:50am 10ft 10s 7s 20 25 mph 997.3mb 44f 44f
3:50am 9.5ft 11s 7s 22 27 mph 996.6mb 44f 43f
2:50am 10ft 11s 7s 22 29 mph 995.7mb 44f 44f
1:50am 10ft 8s 7s 20 25 mph 995mb 44f 44f
12:50am 10ft 11s 7s 22 27 mph 994.4mb 44f 44f
Sun 11/23 11:50pm 10.5ft 11s 7s 20 27 mph 994.1mb 44f 44f
10:50pm 10.5ft 11s 8s 20 25 mph 993.9mb 44f 44f
9:50pm 10ft 11s 7s 20 25 mph 993.8mb 44f 44f
8:50pm 10ft 11s 7s 20 22 mph 993.4mb 44f 44f
7:50pm 10.5ft 11s 8s 20 25 mph 992.8mb 44f 44f
6:50pm 10ft 12s 7s 20 27 mph 992.2mb 44f 44f
5:50pm 10.5ft 10s 7s 20 25 mph 991.6mb 44f 44f
4:50pm 10ft 11s 7s 16 20 mph 991.1mb 44f 43f
3:50pm 11ft 11s  -  22 27 mph 990.6mb 44f 42f
2:50pm 12.5ft 11s 7s 20 25 mph 990.2mb 44f 42f
1:50pm 11ft 11s 7s 22 29 mph 989.9mb 44f 42f
12:50pm 13ft 11s 8s 22 29 mph 989.8mb 44f 43f
11:50am 13.5ft 10s 8s 22 27 mph 989.4mb 44f 44f
10:50am 13ft 10s 8s 25 31 mph 989.4mb 44f 44f
9:50am 14ft 11s 8s 25 29 mph 989.4mb 44f 44f
8:50am 15ft 11s 8s 22 29 mph 989.2mb 44f 43f
7:50am 13.5ft 12s 8s 27 31 mph 988.7mb 44f 43f
6:50am 14ft 11s 8s 25 29 mph 988.1mb 44f 44f
5:50am 12ft 12s 7s 25 29 mph 987.7mb 44f 43f
4:50am 13ft 11s 8s 25 31 mph 987.2mb 44f 43f
3:50am 13.5ft 10s 7s 25 29 mph 986.8mb 44f 42f